createdAt,value
2017-09-19T05:52:53.960Z,11.61
2017-09-19T05:53:34.471Z,11.58
2017-09-19T05:54:14.997Z,11.54
2017-09-19T05:54:55.520Z,11.52
2017-09-19T05:55:36.051Z,11.51
2017-09-19T05:56:16.582Z,11.52
2017-09-19T05:56:57.104Z,11.52
2017-09-19T05:57:37.643Z,11.46
2017-09-19T05:58:18.195Z,11.62
2017-09-19T05:58:58.709Z,11.51
2017-09-19T05:59:39.246Z,11.51
2017-09-19T06:00:19.768Z,11.54
2017-09-19T06:01:00.295Z,11.49
2017-09-19T06:01:40.828Z,11.55
2017-09-19T06:02:21.359Z,11.54
2017-09-19T06:03:01.901Z,11.62
2017-09-19T06:03:42.426Z,11.51
2017-09-19T06:04:22.983Z,11.54
2017-09-19T06:05:03.490Z,11.52
2017-09-19T06:05:44.024Z,11.65
2017-09-19T06:06:24.560Z,11.52
2017-09-19T06:07:05.114Z,11.58
2017-09-19T06:07:45.623Z,11.64
2017-09-19T06:08:26.157Z,11.62
2017-09-19T06:09:06.689Z,11.64
2017-09-19T06:09:47.220Z,11.55
2017-09-19T06:10:27.760Z,11.61
2017-09-19T06:11:08.301Z,11.6
2017-09-19T06:11:48.844Z,11.62
2017-09-19T06:12:29.375Z,11.61
2017-09-19T06:13:09.905Z,11.62
2017-09-19T06:13:50.431Z,11.61
2017-09-19T06:14:30.966Z,11.62
2017-09-19T06:15:11.502Z,11.6
2017-09-19T06:15:52.044Z,11.65
2017-09-19T06:16:32.579Z,11.69
2017-09-19T06:17:13.122Z,11.65
2017-09-19T06:17:53.642Z,11.67
2017-09-19T06:18:34.173Z,11.62
2017-09-19T06:19:14.688Z,11.7
2017-09-19T06:19:55.209Z,11.7
2017-09-19T06:20:35.745Z,11.67
2017-09-19T06:21:16.268Z,11.64
2017-09-19T06:21:56.804Z,11.67
2017-09-19T06:22:37.329Z,11.76
2017-09-19T06:23:17.854Z,11.73
2017-09-19T06:23:58.365Z,11.75
2017-09-19T06:24:38.881Z,11.72
2017-09-19T06:25:19.418Z,11.73
2017-09-19T06:25:59.947Z,11.72
2017-09-19T06:26:40.490Z,11.73
2017-09-19T06:27:21.014Z,11.67
2017-09-19T06:28:01.544Z,11.76
2017-09-19T06:28:42.116Z,11.78
2017-09-19T06:29:22.601Z,11.67
2017-09-19T06:30:03.122Z,11.67
2017-09-19T06:30:43.635Z,11.8
2017-09-19T06:31:24.158Z,11.75
2017-09-19T06:32:04.690Z,11.79
2017-09-19T06:32:45.214Z,11.76
2017-09-19T06:33:25.741Z,11.72
2017-09-19T06:34:06.272Z,11.79
2017-09-19T06:34:46.783Z,11.83
2017-09-19T06:35:27.314Z,11.78
2017-09-19T06:36:07.856Z,11.76
2017-09-19T06:36:48.379Z,11.78
2017-09-19T06:37:28.906Z,11.76
2017-09-19T06:38:09.433Z,11.8
2017-09-19T06:38:49.960Z,11.75
2017-09-19T06:39:30.556Z,11.82
2017-09-19T06:40:11.072Z,11.86
2017-09-19T06:40:51.581Z,11.76
2017-09-19T06:41:32.102Z,11.82
2017-09-19T06:42:12.634Z,11.82
2017-09-19T06:42:53.158Z,11.79
2017-09-19T06:43:33.683Z,11.79
2017-09-19T06:44:14.212Z,11.73
2017-09-19T06:44:54.732Z,11.88
2017-09-19T06:45:35.248Z,11.83
2017-09-19T06:46:15.769Z,11.83
2017-09-19T06:46:56.302Z,11.82
2017-09-19T06:47:36.836Z,11.91
2017-09-19T06:48:17.349Z,11.91
2017-09-19T06:48:57.859Z,11.9
2017-09-19T06:49:38.407Z,11.79
2017-09-19T06:50:18.942Z,11.86
2017-09-19T06:50:59.480Z,11.85
2017-09-19T06:51:40.018Z,11.86
2017-09-19T06:52:20.547Z,11.91
2017-09-19T06:53:01.087Z,11.88
2017-09-19T06:53:41.619Z,11.91
2017-09-19T06:54:22.145Z,11.82
2017-09-19T06:55:02.684Z,11.9
2017-09-19T06:55:43.220Z,11.88
2017-09-19T06:56:23.765Z,11.9
2017-09-19T06:57:04.290Z,11.91
2017-09-19T06:57:44.815Z,11.9
2017-09-19T06:58:25.337Z,11.96
2017-09-19T06:59:05.905Z,11.91
2017-09-19T06:59:46.429Z,11.85
2017-09-19T07:00:26.958Z,11.85
2017-09-19T07:01:07.493Z,11.9
2017-09-19T07:01:48.019Z,11.85
2017-09-19T07:02:28.566Z,11.86
2017-09-19T07:03:09.092Z,11.85
2017-09-19T07:03:49.616Z,11.85
2017-09-19T07:04:30.135Z,11.86
2017-09-19T07:05:10.667Z,11.86
2017-09-19T07:05:51.211Z,11.91
2017-09-19T07:06:31.745Z,11.96
2017-09-19T07:07:12.278Z,11.91
2017-09-19T07:07:52.803Z,11.98
2017-09-19T07:08:33.326Z,11.86
2017-09-19T07:09:13.864Z,11.85
2017-09-19T07:09:54.384Z,11.98
2017-09-19T07:10:34.920Z,11.91
2017-09-19T07:11:15.435Z,11.96
2017-09-19T07:11:55.965Z,11.95
2017-09-19T07:12:36.495Z,11.96
2017-09-19T07:13:17.029Z,11.96
2017-09-19T07:13:57.540Z,11.91
2017-09-19T07:14:38.080Z,11.96
2017-09-19T07:15:18.608Z,11.98
2017-09-19T07:15:59.149Z,11.91
2017-09-19T07:16:39.690Z,11.99
2017-09-19T07:17:20.229Z,12.02
2017-09-19T07:18:00.758Z,12.01
2017-09-19T07:18:41.293Z,12.02
2017-09-19T07:19:21.818Z,12.07
2017-09-19T07:20:02.352Z,12.01
2017-09-19T07:20:42.870Z,11.99
2017-09-19T07:21:23.403Z,12.07
2017-09-19T07:22:03.930Z,12.05
2017-09-19T07:22:44.456Z,12.04
2017-09-19T07:23:24.995Z,12.02
2017-09-19T07:24:05.513Z,12.09
2017-09-19T07:24:46.043Z,12.19
2017-09-19T07:25:26.580Z,12.04
2017-09-19T07:26:07.101Z,12.13
2017-09-19T07:26:47.642Z,12.16
2017-09-19T07:27:28.171Z,12.13
2017-09-19T07:28:08.689Z,12.16
2017-09-19T07:28:49.228Z,12.19
2017-09-19T07:29:29.766Z,12.16
2017-09-19T07:30:10.293Z,12.17
2017-09-19T07:30:50.803Z,12.14
2017-09-19T07:31:31.334Z,12.17
2017-09-19T07:32:11.873Z,12.1
2017-09-19T07:32:52.420Z,12.09
2017-09-19T07:33:32.954Z,12.2
2017-09-19T07:34:13.479Z,12.1
2017-09-19T07:34:54.002Z,12.13
2017-09-19T07:35:34.538Z,12.17
2017-09-19T07:36:15.075Z,12.13
2017-09-19T07:36:55.609Z,12.17
2017-09-19T07:37:36.145Z,12.16
2017-09-19T07:38:16.676Z,12.23
2017-09-19T07:38:57.207Z,12.24
2017-09-19T07:39:37.764Z,12.29
2017-09-19T07:40:18.279Z,12.28
2017-09-19T07:40:58.821Z,12.23
2017-09-19T07:41:39.362Z,12.24
2017-09-19T07:42:19.888Z,12.2
2017-09-19T07:43:00.407Z,12.28
2017-09-19T07:43:40.947Z,12.27
2017-09-19T07:44:21.475Z,12.31
2017-09-19T07:45:02.009Z,12.38
2017-09-19T07:45:42.554Z,12.32
2017-09-19T07:46:23.082Z,12.31
2017-09-19T07:47:03.595Z,12.32
2017-09-19T07:47:44.137Z,12.32
2017-09-19T07:48:24.665Z,12.38
2017-09-19T07:49:05.195Z,12.41
2017-09-19T07:49:45.741Z,12.35
2017-09-19T07:50:26.272Z,12.31
2017-09-19T07:51:06.849Z,12.32
2017-09-19T07:51:47.371Z,12.34
2017-09-19T07:52:27.910Z,12.35
2017-09-19T07:53:08.416Z,12.38
2017-09-19T07:53:48.950Z,12.27
2017-09-19T07:54:29.471Z,12.35
2017-09-19T07:55:10.001Z,12.31
2017-09-19T07:55:50.531Z,12.24
2017-09-19T07:56:31.061Z,12.24
2017-09-19T07:57:11.576Z,12.28
2017-09-19T07:57:52.093Z,12.14
2017-09-19T07:58:32.631Z,12.13
2017-09-19T07:59:13.165Z,12.19
2017-09-19T07:59:53.690Z,12.19
2017-09-19T08:00:34.207Z,12.14
2017-09-19T08:01:14.758Z,12.13
2017-09-19T08:01:55.284Z,12.17
2017-09-19T08:02:35.825Z,12.12
2017-09-19T08:03:16.347Z,12.02
2017-09-19T08:03:56.882Z,12.12
2017-09-19T08:04:37.405Z,12.13
2017-09-19T08:05:17.925Z,12.07
2017-09-19T08:05:58.452Z,12.01
2017-09-19T08:06:38.975Z,12.1
2017-09-19T08:07:19.513Z,12.09
2017-09-19T08:08:00.047Z,11.99
2017-09-19T08:08:40.588Z,12.13
2017-09-19T08:09:21.125Z,12.13
2017-09-19T08:10:01.665Z,12.13
2017-09-19T08:10:42.201Z,12.14
2017-09-19T08:11:22.717Z,12.17
2017-09-19T08:12:03.248Z,12.12
2017-09-19T08:12:43.787Z,12.23
2017-09-19T08:13:24.326Z,12.21
2017-09-19T08:14:04.839Z,12.23
2017-09-19T08:14:45.367Z,12.32
2017-09-19T08:15:25.901Z,12.29
2017-09-19T08:16:06.419Z,12.29
2017-09-19T08:16:46.937Z,12.42
2017-09-19T08:17:27.481Z,12.45
2017-09-19T08:18:07.996Z,12.46
2017-09-19T08:18:48.538Z,12.54
2017-09-19T08:19:29.077Z,12.6
2017-09-19T08:20:09.645Z,12.57
2017-09-19T08:20:50.183Z,12.56
2017-09-19T08:21:30.715Z,12.67
2017-09-19T08:22:11.239Z,12.59
2017-09-19T08:22:51.759Z,12.6
2017-09-19T08:23:32.285Z,12.59
2017-09-19T08:24:12.813Z,12.62
2017-09-19T08:24:53.348Z,12.67
2017-09-19T08:25:33.880Z,12.7
2017-09-19T08:26:14.399Z,12.64
2017-09-19T08:26:54.929Z,12.67
2017-09-19T08:27:35.455Z,12.83
2017-09-19T08:28:15.980Z,12.83
2017-09-19T08:28:56.506Z,12.85
2017-09-19T08:29:37.072Z,12.86
2017-09-19T08:30:17.601Z,12.93
2017-09-19T08:30:58.139Z,12.96
2017-09-19T08:31:38.666Z,12.92
2017-09-19T08:32:19.181Z,13.05
2017-09-19T08:32:59.724Z,13.11
2017-09-19T08:33:40.254Z,13.1
2017-09-19T08:34:20.795Z,13.15
2017-09-19T08:35:01.318Z,13.17
2017-09-19T08:35:41.828Z,13.25
2017-09-19T08:36:22.357Z,13.22
2017-09-19T08:37:02.887Z,13.28
2017-09-19T08:37:43.431Z,13.29
2017-09-19T08:38:23.951Z,13.28
2017-09-19T08:39:04.478Z,13.38
2017-09-19T08:39:45.006Z,13.3
2017-09-19T08:40:25.533Z,13.26
2017-09-19T08:41:06.070Z,13.3
2017-09-19T08:41:46.600Z,13.29
2017-09-19T08:42:27.128Z,13.23
2017-09-19T08:43:07.656Z,13.22
2017-09-19T08:43:48.188Z,13.26
2017-09-19T08:44:28.738Z,13.28
2017-09-19T08:45:09.280Z,13.26
2017-09-19T08:45:49.802Z,13.26
2017-09-19T08:46:30.331Z,13.26
2017-09-19T08:47:10.862Z,13.26
2017-09-19T08:47:51.403Z,13.25
2017-09-19T08:48:31.932Z,13.26
2017-09-19T08:49:12.471Z,13.25
2017-09-19T08:49:53.007Z,13.29
2017-09-19T08:50:33.540Z,13.25
2017-09-19T08:51:14.085Z,13.32
2017-09-19T08:51:54.629Z,13.28
2017-09-19T08:52:35.159Z,13.22
2017-09-19T08:53:15.693Z,13.26
2017-09-19T08:53:56.230Z,13.25
2017-09-19T08:54:36.752Z,13.25
2017-09-19T08:55:17.288Z,13.2
2017-09-19T08:55:57.818Z,13.25
2017-09-19T08:56:38.355Z,13.23
2017-09-19T08:57:18.884Z,13.26
2017-09-19T08:57:59.423Z,13.25
2017-09-19T08:58:39.941Z,13.26
2017-09-19T08:59:20.479Z,13.28
2017-09-19T09:00:01.022Z,13.3
2017-09-19T09:00:41.556Z,13.29
2017-09-19T09:01:22.102Z,13.28
2017-09-19T09:02:02.636Z,13.28
2017-09-19T09:02:43.166Z,13.38
2017-09-19T09:03:23.695Z,13.59
2017-09-19T09:04:04.235Z,13.84
2017-09-19T09:04:44.767Z,14
2017-09-19T09:05:25.307Z,14.35
2017-09-19T09:06:05.838Z,14.62
2017-09-19T09:06:46.378Z,14.96
2017-09-19T09:07:26.921Z,15.13
2017-09-19T09:08:07.451Z,15.25
2017-09-19T09:08:47.984Z,15.31
2017-09-19T09:09:28.516Z,15.28
2017-09-19T09:10:09.059Z,15.23
2017-09-19T09:10:49.598Z,15.16
2017-09-19T09:11:30.139Z,15.11
2017-09-19T09:12:10.670Z,15.01
2017-09-19T09:12:51.204Z,14.96
2017-09-19T09:13:31.746Z,14.81
2017-09-19T09:14:12.271Z,14.77
2017-09-19T09:14:52.806Z,14.75
2017-09-19T09:15:33.339Z,14.62
2017-09-19T09:16:13.865Z,14.55
2017-09-19T09:16:54.405Z,14.54
2017-09-19T09:17:34.955Z,14.36
2017-09-19T09:18:15.479Z,14.24
2017-09-19T09:18:56.040Z,14.24
2017-09-19T09:19:36.588Z,14.15
2017-09-19T09:20:17.120Z,14.15
2017-09-19T09:20:57.658Z,14.06
2017-09-19T09:21:38.202Z,14.03
2017-09-19T09:22:18.732Z,14.02
2017-09-19T09:22:59.260Z,14.02
2017-09-19T09:23:39.789Z,14.03
2017-09-19T09:24:20.315Z,14
2017-09-19T09:25:00.857Z,13.97
2017-09-19T09:25:41.397Z,13.95
2017-09-19T09:26:21.918Z,14.02
2017-09-19T09:27:02.443Z,13.95
2017-09-19T09:27:42.985Z,13.95
2017-09-19T09:28:23.498Z,13.95
2017-09-19T09:29:04.044Z,13.92
2017-09-19T09:29:44.565Z,13.99
2017-09-19T09:30:25.108Z,13.88
2017-09-19T09:31:05.633Z,13.81
2017-09-19T09:31:46.175Z,13.81
2017-09-19T09:32:26.703Z,13.84
2017-09-19T09:33:07.222Z,13.87
2017-09-19T09:33:47.768Z,13.88
2017-09-19T09:34:28.304Z,13.77
2017-09-19T09:35:08.845Z,13.81
2017-09-19T09:35:49.384Z,13.82
2017-09-19T09:36:29.928Z,13.7
2017-09-19T09:37:10.463Z,13.73
2017-09-19T09:37:51.000Z,13.71
2017-09-19T09:38:31.536Z,13.7
2017-09-19T09:39:12.073Z,13.67
2017-09-19T09:39:52.614Z,13.7
2017-09-19T09:40:33.152Z,13.71
2017-09-19T09:41:13.693Z,13.73
2017-09-19T09:41:54.232Z,13.73
2017-09-19T09:42:34.772Z,13.64
2017-09-19T09:43:15.344Z,13.7
2017-09-19T09:43:55.872Z,13.69
2017-09-19T09:44:36.408Z,13.7
2017-09-19T09:45:16.944Z,13.7
2017-09-19T09:45:57.480Z,13.7
2017-09-19T09:46:38.008Z,13.69
2017-09-19T09:47:18.540Z,13.71
2017-09-19T09:47:59.081Z,13.7
2017-09-19T09:48:39.609Z,13.7
2017-09-19T09:49:20.135Z,13.69
2017-09-19T09:50:00.671Z,13.71
2017-09-19T09:50:41.185Z,13.81
2017-09-19T09:51:21.717Z,13.73
2017-09-19T09:52:02.257Z,13.85
2017-09-19T09:52:42.785Z,13.85
2017-09-19T09:53:23.321Z,13.81
2017-09-19T09:54:03.862Z,13.95
2017-09-19T09:54:44.397Z,13.77
2017-09-19T09:55:24.959Z,13.87
2017-09-19T09:56:05.467Z,13.95
2017-09-19T09:56:46.002Z,13.92
2017-09-19T09:57:26.515Z,13.89
2017-09-19T09:58:07.042Z,13.91
2017-09-19T09:58:47.576Z,13.92
2017-09-19T09:59:28.117Z,13.97
2017-09-19T10:00:08.642Z,14.03
2017-09-19T10:00:49.189Z,14.02
2017-09-19T10:01:29.728Z,14.14
2017-09-19T10:02:10.274Z,14.25
2017-09-19T10:02:50.802Z,14.36
2017-09-19T10:03:31.357Z,14.45
2017-09-19T10:04:11.889Z,14.72
2017-09-19T10:04:52.432Z,14.88
2017-09-19T10:05:32.963Z,14.99
2017-09-19T10:06:13.501Z,15.06
2017-09-19T10:06:54.038Z,15.31
2017-09-19T10:07:34.580Z,15.47
2017-09-19T10:08:15.113Z,15.62
2017-09-19T10:08:55.653Z,15.74
2017-09-19T10:09:36.192Z,15.74
2017-09-19T10:10:16.724Z,15.82
2017-09-19T10:10:57.256Z,15.57
2017-09-19T10:11:37.798Z,15.56
2017-09-19T10:12:18.341Z,15.47
2017-09-19T10:12:58.874Z,15.47
2017-09-19T10:13:39.417Z,15.57
2017-09-19T10:14:19.958Z,15.78
2017-09-19T10:15:00.487Z,15.96
2017-09-19T10:15:41.027Z,16.04
2017-09-19T10:16:21.559Z,16.04
2017-09-19T10:17:02.097Z,16.02
2017-09-19T10:17:42.625Z,15.96
2017-09-19T10:18:23.168Z,15.89
2017-09-19T10:19:03.706Z,15.84
2017-09-19T10:19:44.246Z,15.94
2017-09-19T10:20:24.790Z,15.9
2017-09-19T10:21:05.324Z,16.01
2017-09-19T10:21:45.860Z,16.01
2017-09-19T10:22:26.396Z,16.23
2017-09-19T10:23:06.934Z,16.17
2017-09-19T10:23:47.494Z,16.25
2017-09-19T10:24:28.029Z,16.11
2017-09-19T10:25:08.553Z,16.02
2017-09-19T10:25:49.067Z,15.97
2017-09-19T10:26:29.604Z,15.86
2017-09-19T10:27:10.144Z,15.75
2017-09-19T10:27:50.680Z,15.72
2017-09-19T10:28:31.208Z,15.57
2017-09-19T10:29:11.752Z,15.56
2017-09-19T10:29:52.282Z,15.57
2017-09-19T10:30:32.817Z,15.47
2017-09-19T10:31:13.365Z,15.49
2017-09-19T10:31:53.894Z,15.43
2017-09-19T10:32:34.434Z,15.49
2017-09-19T10:33:14.979Z,15.41
2017-09-19T10:33:55.517Z,15.47
2017-09-19T10:34:36.057Z,15.39
2017-09-19T10:35:16.591Z,15.39
2017-09-19T10:35:57.124Z,15.36
2017-09-19T10:36:37.671Z,15.27
2017-09-19T10:37:18.186Z,15.25
2017-09-19T10:37:58.751Z,15.29
2017-09-19T10:38:39.286Z,15.17
2017-09-19T10:39:19.834Z,15.2
2017-09-19T10:40:00.365Z,15.2
2017-09-19T10:40:40.898Z,15.13
2017-09-19T10:41:21.447Z,15.14
2017-09-19T10:42:01.974Z,15.1
2017-09-19T10:42:42.508Z,15.03
2017-09-19T10:43:23.041Z,15.13
2017-09-19T10:44:03.568Z,15.09
2017-09-19T10:44:44.104Z,15.07
2017-09-19T10:45:24.642Z,15.01
2017-09-19T10:46:05.200Z,14.98
2017-09-19T10:46:45.719Z,14.96
2017-09-19T10:47:26.261Z,14.95
2017-09-19T10:48:06.786Z,14.95
2017-09-19T10:48:47.337Z,14.96
2017-09-19T10:49:27.873Z,14.95
2017-09-19T10:50:08.387Z,14.95
2017-09-19T10:50:48.949Z,14.99
2017-09-19T10:51:29.471Z,14.92
2017-09-19T10:52:10.012Z,14.98
2017-09-19T10:52:50.555Z,14.91
2017-09-19T10:53:31.085Z,14.94
2017-09-19T10:54:11.620Z,14.92
2017-09-19T10:54:52.157Z,14.96
2017-09-19T10:55:32.692Z,14.92
2017-09-19T10:56:13.235Z,15.01
2017-09-19T10:56:53.773Z,14.95
2017-09-19T10:57:34.307Z,14.96
2017-09-19T10:58:14.840Z,14.91
2017-09-19T10:58:55.375Z,15.07
2017-09-19T10:59:35.911Z,14.98
2017-09-19T11:00:16.441Z,14.96
2017-09-19T11:00:56.989Z,14.94
2017-09-19T11:01:37.523Z,14.94
2017-09-19T11:02:18.063Z,14.96
2017-09-19T11:02:58.605Z,14.94
2017-09-19T11:03:39.147Z,14.96
2017-09-19T11:04:19.712Z,14.99
2017-09-19T11:05:00.203Z,14.92
2017-09-19T11:05:40.734Z,14.94
2017-09-19T11:06:21.275Z,14.84
2017-09-19T11:07:01.813Z,14.83
2017-09-19T11:07:42.343Z,14.86
2017-09-19T11:08:22.881Z,14.77
2017-09-19T11:09:03.401Z,14.77
2017-09-19T11:09:43.928Z,14.77
2017-09-19T11:10:24.478Z,14.77
2017-09-19T11:11:05.012Z,14.69
2017-09-19T11:11:45.556Z,14.75
2017-09-19T11:12:26.106Z,14.77
2017-09-19T11:13:06.628Z,14.77
2017-09-19T11:13:47.163Z,14.83
2017-09-19T11:14:27.707Z,14.86
2017-09-19T11:15:08.235Z,14.98
2017-09-19T11:15:48.780Z,14.95
2017-09-19T11:16:29.316Z,15.09
2017-09-19T11:17:09.849Z,15.09
2017-09-19T11:17:50.415Z,15.02
2017-09-19T11:18:30.948Z,15.07
2017-09-19T11:19:11.475Z,15.13
2017-09-19T11:19:52.029Z,15.14
2017-09-19T11:20:32.564Z,15.21
2017-09-19T11:21:13.092Z,15.2
2017-09-19T11:21:53.638Z,15.29
2017-09-19T11:22:34.177Z,15.31
2017-09-19T11:23:14.708Z,15.34
2017-09-19T11:23:55.247Z,15.35
2017-09-19T11:24:35.767Z,15.34
2017-09-19T11:25:16.313Z,15.38
2017-09-19T11:25:56.848Z,15.32
2017-09-19T11:26:37.389Z,15.41
2017-09-19T11:27:17.929Z,15.32
2017-09-19T11:27:58.472Z,15.21
2017-09-19T11:28:38.997Z,15.23
2017-09-19T11:29:19.537Z,15.16
2017-09-19T11:30:00.074Z,15.14
2017-09-19T11:30:40.630Z,15.06
2017-09-19T11:31:21.172Z,14.99
2017-09-19T11:32:01.724Z,14.95
2017-09-19T11:32:42.243Z,14.88
2017-09-19T11:33:22.782Z,14.7
2017-09-19T11:34:03.323Z,14.65
2017-09-19T11:34:43.866Z,14.62
2017-09-19T11:35:24.393Z,14.51
2017-09-19T11:36:04.927Z,14.54
2017-09-19T11:36:45.454Z,14.47
2017-09-19T11:37:25.987Z,14.5
2017-09-19T11:38:06.623Z,14.47
2017-09-19T11:38:47.230Z,14.57
2017-09-19T11:39:27.767Z,14.54
2017-09-19T11:40:08.318Z,14.57
2017-09-19T11:40:48.857Z,14.64
2017-09-19T11:41:29.393Z,14.58
2017-09-19T11:42:09.935Z,14.55
2017-09-19T11:42:50.553Z,14.61
2017-09-19T11:43:31.368Z,14.62
2017-09-19T11:44:11.943Z,14.68
2017-09-19T11:44:52.620Z,14.68
2017-09-19T11:45:33.544Z,14.75
2017-09-19T11:46:14.289Z,14.75
2017-09-19T11:46:56.476Z,14.78
2017-09-19T11:47:37.051Z,14.94
2017-09-19T11:48:18.397Z,14.98
2017-09-19T11:48:59.086Z,15.03
2017-09-19T11:49:39.594Z,15.09
2017-09-19T11:50:20.544Z,15.06
2017-09-19T11:51:01.842Z,15.14
2017-09-19T11:51:42.661Z,15.03
2017-09-19T11:52:23.612Z,15.09
2017-09-19T11:53:04.727Z,15.1
2017-09-19T11:53:45.481Z,15.06
2017-09-19T11:54:26.475Z,15.19
2017-09-19T11:55:06.969Z,15.11
2017-09-19T11:55:47.761Z,15.07
2017-09-19T11:56:28.443Z,15.11
2017-09-19T11:57:09.167Z,15.03
2017-09-19T11:57:50.821Z,15.1
2017-09-19T11:58:32.402Z,15.13
2017-09-19T11:59:13.324Z,15.03
2017-09-19T11:59:54.069Z,15.01
2017-09-19T12:00:34.606Z,15.06
2017-09-19T12:01:15.136Z,15.1
2017-09-19T12:01:55.729Z,15.16
2017-09-19T12:02:36.702Z,15.06
2017-09-19T12:03:17.076Z,15.07
2017-09-19T12:03:57.731Z,15.03
2017-09-19T12:04:38.324Z,15.07
2017-09-19T12:05:18.816Z,15.03
2017-09-19T12:05:59.436Z,15.03
2017-09-19T12:06:40.139Z,15.07
2017-09-19T12:07:21.196Z,14.99
2017-09-19T12:08:01.845Z,15.07
2017-09-19T12:08:42.722Z,15.02
2017-09-19T12:09:23.600Z,15.07
2017-09-19T12:10:04.985Z,14.96
2017-09-19T12:10:46.867Z,14.96
2017-09-19T12:11:28.776Z,14.96
2017-09-19T12:12:10.160Z,14.99
2017-09-19T12:12:50.958Z,14.96
2017-09-19T12:13:31.777Z,14.91
2017-09-19T12:14:12.622Z,14.84
2017-09-19T12:14:53.023Z,14.88
2017-09-19T12:15:33.540Z,14.88
2017-09-19T12:16:14.424Z,14.84
2017-09-19T12:16:54.828Z,14.8
2017-09-19T12:17:35.357Z,14.77
2017-09-19T12:18:16.521Z,14.81
2017-09-19T12:18:57.358Z,14.77
2017-09-19T12:19:38.137Z,14.78
2017-09-19T12:20:18.657Z,14.64
2017-09-19T12:20:59.178Z,14.6
2017-09-19T12:21:40.644Z,14.51
2017-09-19T12:22:20.820Z,14.5
2017-09-19T12:23:02.160Z,14.43
2017-09-19T12:23:42.595Z,14.43
2017-09-19T12:24:23.311Z,14.32
2017-09-19T12:25:04.096Z,14.32
2017-09-19T12:25:44.397Z,14.22
2017-09-19T12:26:24.947Z,14.27
2017-09-19T12:27:05.461Z,14.28
2017-09-19T12:27:46.001Z,14.25
2017-09-19T12:28:26.541Z,14.28
2017-09-19T12:29:07.068Z,14.24
2017-09-19T12:29:47.596Z,14.21
2017-09-19T12:30:28.144Z,14.21
2017-09-19T12:31:08.659Z,14.24
2017-09-19T12:31:49.200Z,14.27
2017-09-19T12:32:29.733Z,14.22
2017-09-19T12:33:10.299Z,14.21
2017-09-19T12:33:50.838Z,14.25
2017-09-19T12:34:31.352Z,14.21
2017-09-19T12:35:11.891Z,14.21
2017-09-19T12:35:52.410Z,14.22
2017-09-19T12:36:32.955Z,14.29
2017-09-19T12:37:13.478Z,14.2
2017-09-19T12:37:54.008Z,14.25
2017-09-19T12:38:34.548Z,14.29
2017-09-19T12:39:15.081Z,14.33
2017-09-19T12:39:55.617Z,14.37
2017-09-19T12:40:36.147Z,14.32
2017-09-19T12:41:16.689Z,14.4
2017-09-19T12:41:57.222Z,14.4
2017-09-19T12:42:37.761Z,14.4
2017-09-19T12:43:18.305Z,14.37
2017-09-19T12:43:58.817Z,14.43
2017-09-19T12:44:39.362Z,14.45
2017-09-19T12:45:19.902Z,14.45
2017-09-19T12:46:00.427Z,14.39
2017-09-19T12:46:40.961Z,14.43
2017-09-19T12:47:21.495Z,14.46
2017-09-19T12:48:02.031Z,14.46
2017-09-19T12:48:42.570Z,14.39
2017-09-19T12:49:23.112Z,14.43
2017-09-19T12:50:03.701Z,14.45
2017-09-19T12:50:44.238Z,14.5
2017-09-19T12:51:24.771Z,14.47
2017-09-19T12:52:05.315Z,14.58
2017-09-19T12:52:45.851Z,14.54
2017-09-19T12:53:26.382Z,14.58
2017-09-19T12:54:06.912Z,14.62
2017-09-19T12:54:47.464Z,14.54
2017-09-19T12:55:28.019Z,14.57
2017-09-19T12:56:08.585Z,14.51
2017-09-19T12:56:49.118Z,14.55
2017-09-19T12:57:29.656Z,14.47
2017-09-19T12:58:10.195Z,14.47
2017-09-19T12:58:50.729Z,14.51
2017-09-19T12:59:31.279Z,14.45
2017-09-19T13:00:11.818Z,14.45
2017-09-19T13:00:52.382Z,14.5
2017-09-19T13:01:32.889Z,14.47
2017-09-19T13:02:13.420Z,14.47
2017-09-19T13:02:53.970Z,14.57
2017-09-19T13:03:34.501Z,14.54
2017-09-19T13:04:15.030Z,14.7
2017-09-19T13:04:55.564Z,14.55
2017-09-19T13:05:36.096Z,14.72
2017-09-19T13:06:16.635Z,14.69
2017-09-19T13:06:57.174Z,14.8
2017-09-19T13:07:37.741Z,14.78
2017-09-19T13:08:18.280Z,14.77
2017-09-19T13:08:58.821Z,14.77
2017-09-19T13:09:39.356Z,14.84
2017-09-19T13:10:19.907Z,14.86
2017-09-19T13:11:00.445Z,14.84
2017-09-19T13:11:40.985Z,14.91
2017-09-19T13:12:21.526Z,14.94
2017-09-19T13:13:02.058Z,14.98
2017-09-19T13:13:42.600Z,14.95
2017-09-19T13:14:23.131Z,15.01
2017-09-19T13:15:03.672Z,15.06
2017-09-19T13:15:44.214Z,15.07
2017-09-19T13:16:24.755Z,15.07
2017-09-19T13:17:05.293Z,15.06
2017-09-19T13:17:45.820Z,15.11
2017-09-19T13:18:26.357Z,15.06
2017-09-19T13:19:06.889Z,15.03
2017-09-19T13:19:47.429Z,15.06
2017-09-19T13:20:27.970Z,15.03
2017-09-19T13:21:08.504Z,15.1
2017-09-19T13:21:49.094Z,15.07
2017-09-19T13:22:29.657Z,15.1
2017-09-19T13:23:10.173Z,15.13
2017-09-19T13:23:50.719Z,15.16
2017-09-19T13:24:31.269Z,15.1
2017-09-19T13:25:11.800Z,15.17
2017-09-19T13:25:52.333Z,15.23
2017-09-19T13:26:32.865Z,15.2
2017-09-19T13:27:13.472Z,15.36
2017-09-19T13:27:53.912Z,15.34
2017-09-19T13:28:34.424Z,15.41
2017-09-19T13:29:14.951Z,15.53
2017-09-19T13:29:55.476Z,15.64
2017-09-19T13:30:36.006Z,15.59
2017-09-19T13:31:16.510Z,15.59
2017-09-19T13:31:57.039Z,15.69
2017-09-19T13:32:37.575Z,15.68
2017-09-19T13:33:18.121Z,15.71
2017-09-19T13:33:58.639Z,15.65
2017-09-19T13:34:39.171Z,15.57
2017-09-19T13:35:19.677Z,15.68
2017-09-19T13:36:00.250Z,15.56
2017-09-19T13:36:40.742Z,15.59
2017-09-19T13:37:21.273Z,15.6
2017-09-19T13:38:01.823Z,15.56
2017-09-19T13:38:42.351Z,15.56
2017-09-19T13:39:22.887Z,15.54
2017-09-19T13:40:03.421Z,15.56
2017-09-19T13:40:43.958Z,15.62
2017-09-19T13:41:24.481Z,15.62
2017-09-19T13:42:05.009Z,15.67
2017-09-19T13:42:45.540Z,15.6
2017-09-19T13:43:26.110Z,15.65
2017-09-19T13:44:06.683Z,15.71
2017-09-19T13:44:47.198Z,15.76
2017-09-19T13:45:27.743Z,15.82
2017-09-19T13:46:08.287Z,15.89
2017-09-19T13:46:48.827Z,15.8
2017-09-19T13:47:29.367Z,15.83
2017-09-19T13:48:09.899Z,15.93
2017-09-19T13:48:50.428Z,15.89
2017-09-19T13:49:30.962Z,15.83
2017-09-19T13:50:11.503Z,15.89
2017-09-19T13:50:52.044Z,15.9
2017-09-19T13:51:32.582Z,15.89
2017-09-19T13:52:13.103Z,15.9
2017-09-19T13:52:53.648Z,15.94
2017-09-19T13:53:34.170Z,15.96
2017-09-19T13:54:14.713Z,15.92
2017-09-19T13:54:55.251Z,15.94
2017-09-19T13:55:35.795Z,15.97
2017-09-19T13:56:16.328Z,16.04
2017-09-19T13:56:56.871Z,15.93
2017-09-19T13:57:37.390Z,15.86
2017-09-19T13:58:17.923Z,15.9
2017-09-19T13:58:58.444Z,15.93
2017-09-19T13:59:38.975Z,15.89
2017-09-19T14:00:19.508Z,15.84
2017-09-19T14:01:00.025Z,15.97
2017-09-19T14:01:40.543Z,15.86
2017-09-19T14:02:21.084Z,16.04
2017-09-19T14:03:01.634Z,16.04
2017-09-19T14:03:42.208Z,16.02
2017-09-19T14:04:22.698Z,16.08
2017-09-19T14:05:03.237Z,16.15
2017-09-19T14:05:43.771Z,16.23
2017-09-19T14:06:24.307Z,16.3
2017-09-19T14:07:04.836Z,16.25
2017-09-19T14:07:45.376Z,16.35
2017-09-19T14:08:25.904Z,16.39
2017-09-19T14:09:06.441Z,16.38
2017-09-19T14:09:46.973Z,16.41
2017-09-19T14:10:27.500Z,16.43
2017-09-19T14:11:08.034Z,16.25
2017-09-19T14:11:48.567Z,16.3
2017-09-19T14:12:29.095Z,16.21
2017-09-19T14:13:09.628Z,16.21
2017-09-19T14:13:50.155Z,16.12
2017-09-19T14:14:30.691Z,16.04
2017-09-19T14:15:11.221Z,16.05
2017-09-19T14:15:51.788Z,16.04
2017-09-19T14:16:32.326Z,16.01
2017-09-19T14:17:12.857Z,16.02
2017-09-19T14:17:53.372Z,16.02
2017-09-19T14:18:33.904Z,15.92
2017-09-19T14:19:14.423Z,16.01
2017-09-19T14:19:54.942Z,16.04
2017-09-19T14:20:35.471Z,16.04
2017-09-19T14:21:26.004Z,16.07
2017-09-19T14:22:06.675Z,16.04
2017-09-19T14:22:47.203Z,16.05
2017-09-19T14:23:27.739Z,16.09
2017-09-19T14:24:08.274Z,16.05
2017-09-19T14:24:48.801Z,16.09
2017-09-19T14:25:29.313Z,16.05
2017-09-19T14:26:09.832Z,16.23
2017-09-19T14:26:50.374Z,16.27
2017-09-19T14:27:30.901Z,16.24
2017-09-19T14:28:11.433Z,16.21
2017-09-19T14:28:51.985Z,16.27
2017-09-19T14:29:32.516Z,16.15
2017-09-19T14:30:13.057Z,16.15
2017-09-19T14:30:53.592Z,16.2
2017-09-19T14:31:34.127Z,16.14
2017-09-19T14:32:14.677Z,16.09
2017-09-19T14:32:55.205Z,16.02
2017-09-19T14:33:35.749Z,16.09
2017-09-19T14:34:16.279Z,16.15
2017-09-19T14:34:56.804Z,16.08
2017-09-19T14:35:37.340Z,16.07
2017-09-19T14:36:17.873Z,16
2017-09-19T14:36:58.430Z,16.02